Time;durP1;ratioP1;P1;durP2;ratioP2;P2;SDS_P1;SDS_P2;PMS_P1;PMS_P2;Temp;Humidity;BMP_temperature;BMP_pressure;BME280_temperature;BME280_humidity;BME280_pressure;Samples;Min_cycle;Max_cycle;Signal;HPM_P1;HPM_P2
2022/05/23 00:01:21;;;;;;;1.98;1.33;;;;;;;17.03;52.12;99963.31;4855967;29;20133;-74
2022/05/23 00:03:47;;;;;;;2.15;1.08;;;;;;;17.37;52.36;99983.34;4843021;29;20033;-74
2022/05/23 00:06:20;;;;;;;4.38;1.45;;;;;;;17.16;52.25;99984.94;4840648;29;20057;-73
2022/05/23 00:08:46;;;;;;;6.13;1.75;;;;;;;17.02;51.86;99927.09;4845077;29;20096;-73
2022/05/23 00:11:12;;;;;;;3.25;1.45;;;;;;;17.03;52.42;99924.41;4841468;29;20076;-74
2022/05/23 00:13:38;;;;;;;2.78;1.23;;;;;;;17.03;52.04;99921.75;4841374;29;20053;-74
2022/05/23 00:16:05;;;;;;;3.70;1.80;;;;;;;16.98;52.67;99928.16;4860028;29;20079;-74
2022/05/23 00:18:30;;;;;;;3.25;1.60;;;;;;;16.95;53.28;99958.28;4845183;29;20033;-73
2022/05/23 00:20:56;;;;;;;2.35;1.58;;;;;;;16.76;53.23;99931.47;4842925;29;20054;-74
2022/05/23 00:23:22;;;;;;;4.38;1.70;;;;;;;16.58;53.43;99964.75;4857638;29;20407;-75
2022/05/23 00:25:49;;;;;;;4.22;1.33;;;;;;;16.41;52.69;99946.75;4843109;29;20062;-74
2022/05/23 00:28:15;;;;;;;3.15;1.30;;;;;;;16.55;52.72;99971.91;4838284;29;20556;-73
2022/05/23 00:30:41;;;;;;;4.60;2.28;;;;;;;16.56;52.86;99982.47;4861824;29;20041;-74
2022/05/23 00:35:53;;;;;;;2.33;1.35;;;;;;;16.75;53.58;99987.19;4838483;29;20058;-74
2022/05/23 00:38:19;;;;;;;2.80;1.98;;;;;;;16.70;53.77;99968.78;4839595;29;20102;-74
2022/05/23 00:40:49;;;;;;;3.78;1.75;;;;;;;16.49;53.17;99961.53;4845926;29;20114;-74
2022/05/23 00:43:21;;;;;;;4.72;1.55;;;;;;;16.46;51.94;99962.47;4843910;29;20067;-74
2022/05/23 00:46:00;;;;;;;6.93;1.80;;;;;;;16.41;52.05;99959.09;4846745;29;20097;-74
2022/05/23 00:48:29;;;;;;;8.23;1.75;;;;;;;16.67;51.76;100001.53;4843534;29;20073;-75
2022/05/23 00:50:58;;;;;;;3.30;1.63;;;;;;;16.13;51.74;99972.31;4844764;29;20065;-75
2022/05/23 00:53:39;;;;;;;8.57;1.90;;;;;;;16.39;51.73;99976.84;4843253;29;20049;-75
2022/05/23 00:56:10;;;;;;;7.50;1.65;;;;;;;16.69;52.06;99985.56;4838644;29;20059;-75
2022/05/23 00:58:49;;;;;;;9.00;2.05;;;;;;;16.60;51.11;99988.50;4842510;29;20046;-75
2022/05/23 01:01:19;;;;;;;5.07;1.50;;;;;;;16.12;51.11;99936.19;4847340;29;20072;-74
2022/05/23 01:03:45;;;;;;;4.45;1.92;;;;;;;16.40;52.01;99987.34;4847904;29;20128;-74
2022/05/23 01:06:10;;;;;;;6.70;1.42;;;;;;;16.32;52.56;99965.56;4844579;29;20034;-73
2022/05/23 01:08:39;;;;;;;10.93;2.00;;;;;;;15.96;52.97;99946.34;4844921;29;20402;-74
2022/05/23 01:11:08;;;;;;;6.25;2.05;;;;;;;15.78;52.76;99945.09;4847044;29;20073;-74
2022/05/23 01:13:34;;;;;;;3.60;1.60;;;;;;;15.87;52.76;99939.53;4845630;29;20049;-74
2022/05/23 01:16:00;;;;;;;4.95;2.00;;;;;;;15.59;52.95;99964.13;4846551;29;20089;-74
2022/05/23 01:18:26;;;;;;;6.20;2.53;;;;;;;15.37;54.04;99957.69;4844810;29;20057;-73
2022/05/23 01:21:00;;;;;;;7.68;2.25;;;;;;;15.31;53.81;99948.16;4845087;29;20045;-74
2022/05/23 01:23:58;;;;;;;2.97;1.42;;;;;;;15.30;54.33;99980.78;4845169;29;20114;-74
2022/05/23 01:26:25;;;;;;;3.58;1.67;;;;;;;15.38;54.06;99948.84;4848668;29;20058;-74
2022/05/23 01:28:52;;;;;;;4.55;1.98;;;;;;;15.42;54.21;99953.13;4847535;29;20109;-74
2022/05/23 01:31:18;;;;;;;5.65;1.40;;;;;;;15.69;54.08;99993.84;4843725;29;20050;-74
2022/05/23 01:33:43;;;;;;;5.65;1.75;;;;;;;15.22;54.60;99963.38;4847230;29;20049;-74
2022/05/23 01:36:14;;;;;;;8.90;1.80;;;;;;;15.13;54.46;99940.72;4841332;29;21323;-74
2022/05/23 01:38:40;;;;;;;5.05;1.63;;;;;;;15.19;54.40;99943.16;4842256;29;20053;-74
2022/05/23 01:41:06;;;;;;;5.75;2.72;;;;;;;15.73;53.54;99997.28;4842281;29;20073;-75
2022/05/23 01:43:32;;;;;;;2.78;1.73;;;;;;;15.62;52.84;99953.47;4843512;29;20080;-74
2022/05/23 01:45:58;;;;;;;1.83;1.10;;;;;;;15.73;53.05;100010.50;4847003;29;20037;-74
2022/05/23 01:48:24;;;;;;;6.57;1.60;;;;;;;15.31;53.58;99985.16;4844410;29;20491;-74
2022/05/23 01:50:52;;;;;;;11.63;1.83;;;;;;;15.12;53.34;99950.38;4841075;29;20064;-74
2022/05/23 01:53:17;;;;;;;2.65;1.75;;;;;;;15.37;53.58;99997.34;4846540;29;20090;-75
2022/05/23 01:55:43;;;;;;;4.00;2.15;;;;;;;14.99;53.69;99965.72;4836956;29;20053;-74
2022/05/23 01:58:09;;;;;;;2.40;1.30;;;;;;;14.76;53.86;99954.84;4845809;29;20065;-74
2022/05/23 02:03:20;;;;;;;4.78;1.65;;;;;;;14.85;54.53;99959.91;4836201;29;20074;-74
2022/05/23 02:05:47;;;;;;;5.35;1.85;;;;;;;15.07;54.37;100010.44;4843992;29;20053;-74
2022/05/23 02:08:12;;;;;;;4.25;1.42;;;;;;;15.02;53.71;99982.41;4843411;29;20489;-74
2022/05/23 02:10:38;;;;;;;3.33;1.58;;;;;;;14.92;53.60;99979.97;4847447;29;20086;-73
2022/05/23 02:13:04;;;;;;;2.58;1.55;;;;;;;14.86;53.60;99964.28;4843422;29;20086;-73
2022/05/23 02:15:32;;;;;;;3.53;1.63;;;;;;;14.83;52.92;99959.06;4840172;29;20097;-73
2022/05/23 02:18:00;;;;;;;1.70;1.15;;;;;;;14.73;54.06;99984.84;4846886;29;20050;-73
2022/05/23 02:20:26;;;;;;;4.93;1.77;;;;;;;14.62;54.03;99971.03;4845665;29;20193;-73
2022/05/23 02:22:52;;;;;;;4.57;1.88;;;;;;;14.86;53.84;100010.97;4852473;29;20062;-73
2022/05/23 02:25:18;;;;;;;5.95;1.70;;;;;;;14.47;54.21;99961.66;4854412;29;20075;-73
2022/05/23 02:27:45;;;;;;;4.32;1.50;;;;;;;14.48;54.43;99954.59;4855394;29;20463;-73
2022/05/23 02:30:11;;;;;;;5.25;1.63;;;;;;;14.57;54.25;99955.28;4827224;29;20057;-74
2022/05/23 02:32:37;;;;;;;2.40;1.25;;;;;;;14.69;54.27;99958.53;4840841;29;20050;-74
2022/05/23 02:35:03;;;;;;;3.83;1.80;;;;;;;14.47;55.01;99940.56;4837293;29;20577;-74
2022/05/23 02:37:29;;;;;;;4.32;1.77;;;;;;;14.59;54.71;99954.41;4826276;29;20510;-74
2022/05/23 02:39:55;;;;;;;3.53;2.10;;;;;;;15.07;54.89;100005.13;4840449;29;20061;-74
2022/05/23 02:42:20;;;;;;;3.38;1.70;;;;;;;14.73;55.11;99982.19;4841659;29;20121;-74
2022/05/23 02:44:46;;;;;;;4.22;1.38;;;;;;;14.60;55.22;100007.16;4844421;29;20440;-74
2022/05/23 02:47:12;;;;;;;5.10;1.63;;;;;;;14.56;54.75;99987.91;4856227;29;20068;-74
2022/05/23 02:49:38;;;;;;;2.17;1.40;;;;;;;14.58;54.83;99993.13;4856263;29;20510;-74
2022/05/23 02:52:09;;;;;;;3.40;1.60;;;;;;;14.53;54.49;99964.16;4830412;29;20041;-75
2022/05/23 02:54:35;;;;;;;2.95;1.70;;;;;;;14.68;55.61;99991.13;4846120;29;20142;-74
2022/05/23 02:57:01;;;;;;;3.92;1.55;;;;;;;14.70;54.55;99969.09;4830134;29;20073;-74
2022/05/23 02:59:28;;;;;;;7.28;2.25;;;;;;;14.92;55.95;100030.19;4848783;29;20057;-75
2022/05/23 03:04:38;;;;;;;4.22;1.45;;;;;;;14.51;56.07;99987.06;4843178;29;20106;-76
2022/05/23 03:07:03;;;;;;;4.53;1.88;;;;;;;14.59;55.70;100009.84;4848196;29;20073;-73
2022/05/23 03:09:32;;;;;;;7.50;3.00;;;;;;;14.74;55.83;100006.84;4851157;29;20037;-74
2022/05/23 03:11:59;;;;;;;3.53;1.58;;;;;;;14.41;56.48;100029.56;4841801;29;20050;-74
2022/05/23 03:14:27;;;;;;;4.30;1.85;;;;;;;14.64;55.10;99978.91;4845437;29;20061;-73
2022/05/23 03:16:54;;;;;;;7.20;2.22;;;;;;;14.13;56.82;99957.13;4845135;29;20064;-75
2022/05/23 03:19:19;;;;;;;5.95;2.63;;;;;;;14.83;55.87;100011.91;4842413;29;20074;-73
2022/05/23 03:27:16;;;;;;;4.75;1.73;;;;;;;14.46;56.86;99957.28;4848423;29;20129;-73
2022/05/23 03:29:43;;;;;;;3.60;1.58;;;;;;;14.50;56.31;99980.06;4845818;29;20045;-73
2022/05/23 03:32:13;;;;;;;3.55;1.90;;;;;;;14.48;56.00;99965.16;4849682;29;20128;-74
2022/05/23 03:34:41;;;;;;;1.73;1.13;;;;;;;14.66;55.08;99964.78;4844651;29;20050;-75
2022/05/23 03:37:08;;;;;;;6.68;2.25;;;;;;;14.40;56.34;99968.00;4843565;29;20052;-72
2022/05/23 03:39:37;;;;;;;8.32;2.20;;;;;;;14.68;55.91;100006.97;4862179;29;20144;-73
2022/05/23 03:42:04;;;;;;;3.03;1.63;;;;;;;15.05;54.82;100011.38;4850282;29;20061;-73
2022/05/23 03:44:34;;;;;;;6.97;2.10;;;;;;;14.57;56.29;99963.22;4853699;29;20057;-73
2022/05/23 03:47:00;;;;;;;3.15;1.83;;;;;;;14.64;56.27;100016.75;4856750;29;20117;-74
2022/05/23 03:49:27;;;;;;;9.48;1.77;;;;;;;14.43;56.07;99981.13;4849050;29;20053;-73
2022/05/23 03:51:54;;;;;;;3.15;1.73;;;;;;;14.84;56.66;100021.53;4849239;29;20037;-73
2022/05/23 03:54:21;;;;;;;4.78;1.77;;;;;;;14.43;56.74;99967.06;4853222;29;20224;-73
2022/05/23 03:56:50;;;;;;;3.88;2.22;;;;;;;14.91;56.74;99996.75;4851151;29;20052;-73
2022/05/23 03:59:17;;;;;;;3.20;1.85;;;;;;;14.83;56.05;99985.47;4849280;29;20061;-73
2022/05/23 04:01:42;;;;;;;5.13;2.28;;;;;;;15.22;56.94;100009.19;4845276;29;20065;-73
2022/05/23 04:04:09;;;;;;;8.55;2.03;;;;;;;15.23;56.83;100002.97;4851864;29;20045;-73
2022/05/23 04:06:38;;;;;;;10.82;2.80;;;;;;;15.17;56.87;100019.88;4842210;29;20518;-73
2022/05/23 04:09:04;;;;;;;3.25;1.92;;;;;;;14.61;56.94;99965.78;4843813;29;20478;-74
2022/05/23 04:11:29;;;;;;;5.10;2.78;;;;;;;15.05;56.29;100012.22;4845401;29;20053;-74
2022/05/23 04:13:55;;;;;;;5.10;2.67;;;;;;;14.99;56.22;100012.41;4844341;29;20053;-74
2022/05/23 04:16:29;;;;;;;10.80;2.25;;;;;;;14.72;56.28;99987.50;4856497;29;20050;-73
2022/05/23 04:18:56;;;;;;;7.70;3.00;;;;;;;14.71;55.94;99969.94;4845514;29;20029;-73
2022/05/23 04:21:21;;;;;;;5.95;2.42;;;;;;;15.11;56.08;100012.09;4846407;29;20563;-74
2022/05/23 04:23:47;;;;;;;6.55;3.30;;;;;;;14.90;56.74;99984.44;4842613;29;20058;-73
2022/05/23 04:26:12;;;;;;;5.60;2.38;;;;;;;14.84;56.89;99979.28;4862954;29;20045;-74
2022/05/23 04:28:42;;;;;;;5.68;2.38;;;;;;;14.82;56.63;99985.50;4844103;29;20056;-74
2022/05/23 04:31:08;;;;;;;4.10;2.00;;;;;;;15.13;56.49;100017.34;4847777;29;20046;-73
2022/05/23 04:36:20;;;;;;;3.13;1.65;;;;;;;14.79;55.96;99989.09;4847649;29;20051;-74
2022/05/23 04:38:52;;;;;;;10.05;2.10;;;;;;;15.05;56.91;99974.38;4841533;29;20061;-74
2022/05/23 04:41:24;;;;;;;5.55;2.33;;;;;;;14.92;55.66;99981.75;4866476;29;20061;-75
2022/05/23 04:43:50;;;;;;;12.05;2.30;;;;;;;15.43;55.82;100010.41;4841089;29;20053;-75
2022/05/23 04:46:16;;;;;;;12.60;2.58;;;;;;;15.40;55.46;99969.06;4844822;29;20150;-73
2022/05/23 04:51:26;;;;;;;7.10;2.55;;;;;;;15.34;54.40;99950.72;4843570;29;20057;-75
2022/05/23 04:53:56;;;;;;;6.30;1.92;;;;;;;15.59;54.88;99976.47;4844572;29;20045;-74
2022/05/23 04:56:26;;;;;;;11.63;2.58;;;;;;;15.43;53.53;99978.69;4846269;29;20064;-73
2022/05/23 04:58:53;;;;;;;5.32;2.30;;;;;;;15.78;52.41;99976.84;4828898;29;20060;-74
2022/05/23 05:01:21;;;;;;;3.83;2.38;;;;;;;16.12;53.96;100016.44;4831347;29;20137;-73
2022/05/23 05:03:47;;;;;;;7.68;2.45;;;;;;;15.91;52.04;100032.94;4846188;29;20034;-74
2022/05/23 05:06:13;;;;;;;7.25;2.45;;;;;;;16.36;52.38;100027.22;4842733;29;20069;-74
2022/05/23 05:08:39;;;;;;;9.77;3.15;;;;;;;16.19;52.13;99975.63;4835066;29;20085;-74
2022/05/23 05:11:05;;;;;;;8.85;2.20;;;;;;;16.29;51.06;99980.66;4843341;29;20049;-74
2022/05/23 05:13:34;;;;;;;22.92;2.55;;;;;;;16.29;52.52;99972.72;4842356;29;20089;-73
2022/05/23 05:16:00;;;;;;;8.18;2.78;;;;;;;16.36;51.32;99971.63;4842898;29;20072;-74
2022/05/23 05:18:27;;;;;;;4.47;2.38;;;;;;;16.97;52.25;100009.41;4858874;29;20087;-74
2022/05/23 05:20:54;;;;;;;10.60;2.33;;;;;;;16.31;51.12;99985.00;4838130;29;20060;-73
2022/05/23 05:23:20;;;;;;;7.90;1.75;;;;;;;16.81;50.94;100002.88;4845432;29;20349;-73
2022/05/23 05:25:46;;;;;;;5.90;1.90;;;;;;;16.85;52.80;99986.84;4847878;29;20057;-74
2022/05/23 05:28:12;;;;;;;4.30;1.60;;;;;;;16.82;51.38;100036.44;4845580;29;20050;-74
2022/05/23 05:30:45;;;;;;;10.15;2.38;;;;;;;16.77;51.74;99982.69;4844300;29;20112;-74
2022/05/23 05:33:16;;;;;;;4.10;2.17;;;;;;;16.81;51.43;99987.00;4841337;29;20045;-74
2022/05/23 05:35:53;;;;;;;16.42;4.30;;;;;;;17.02;52.12;100010.16;4842212;29;20144;-74
2022/05/23 05:38:48;;;;;;;4.95;2.72;;;;;;;16.74;52.19;99990.72;4843900;29;20050;-75
2022/05/23 05:41:19;;;;;;;7.10;3.53;;;;;;;16.64;53.42;99987.50;4844969;29;20045;-73
2022/05/23 05:44:02;;;;;;;4.45;1.92;;;;;;;16.87;53.74;99973.53;4843018;29;20482;-74
2022/05/23 05:46:36;;;;;;;5.60;2.22;;;;;;;17.21;54.66;100041.38;4846261;29;20057;-74
2022/05/23 05:49:06;;;;;;;7.10;1.77;;;;;;;16.86;52.85;99995.69;4844931;29;20640;-75
2022/05/23 05:51:34;;;;;;;6.85;2.30;;;;;;;16.88;53.73;100017.72;4843957;29;20040;-73
2022/05/23 05:54:00;;;;;;;3.90;2.00;;;;;;;16.83;52.40;99971.91;4846153;29;20048;-73
2022/05/23 05:56:27;;;;;;;5.30;2.22;;;;;;;17.11;51.66;99989.56;4846513;29;20194;-74
2022/05/23 05:58:52;;;;;;;5.00;2.53;;;;;;;17.53;51.84;100021.69;4845178;29;20057;-73
2022/05/23 06:01:20;;;;;;;5.38;2.05;;;;;;;17.73;50.11;100029.81;4859610;29;20052;-73
2022/05/23 06:03:46;;;;;;;11.88;2.55;;;;;;;17.40;50.07;99994.72;4843230;29;20450;-74
2022/05/23 06:11:40;;;;;;;3.92;1.83;;;;;;;17.93;51.46;99976.06;4855885;29;20065;-74
2022/05/23 06:14:07;;;;;;;5.05;2.33;;;;;;;18.06;48.77;99991.50;4832125;29;20050;-74
2022/05/23 06:16:35;;;;;;;4.18;2.40;;;;;;;18.52;49.72;99993.25;4845837;29;20073;-73
2022/05/23 06:19:01;;;;;;;3.17;1.75;;;;;;;18.81;49.26;100022.28;4854012;29;20042;-74
2022/05/23 06:21:27;;;;;;;6.68;2.08;;;;;;;19.06;48.13;100023.03;4842134;29;20041;-74
2022/05/23 06:23:54;;;;;;;7.70;2.53;;;;;;;18.32;48.22;99964.81;4858919;29;20042;-73
2022/05/23 06:26:22;;;;;;;4.00;2.05;;;;;;;18.64;48.62;99965.34;4850363;29;20080;-73
2022/05/23 06:28:49;;;;;;;3.20;1.65;;;;;;;19.16;49.19;100018.19;4845249;29;20102;-80
2022/05/23 06:31:17;;;;;;;3.80;1.70;;;;;;;18.07;48.70;99979.94;4839986;29;20136;-80
2022/05/23 06:33:44;;;;;;;6.45;4.10;;;;;;;18.60;48.88;99984.97;4846478;29;20048;-81
2022/05/23 06:36:15;;;;;;;12.75;3.90;;;;;;;19.09;48.56;99995.44;4860025;29;20049;-80
2022/05/23 06:39:06;;;;;;;3.00;1.45;;;;;;;18.88;47.43;100000.69;4853075;29;20079;-80
2022/05/23 06:41:31;;;;;;;6.80;2.08;;;;;;;18.07;48.14;99999.41;4824381;29;20071;-81
2022/05/23 06:43:59;;;;;;;4.15;1.48;;;;;;;18.61;48.38;99993.81;4825123;29;20731;-80
2022/05/23 06:46:29;;;;;;;2.67;1.38;;;;;;;18.47;48.47;99989.94;4823298;29;20053;-81
2022/05/23 06:48:56;;;;;;;6.15;1.70;;;;;;;19.06;48.09;100014.16;4819622;29;20109;-80
2022/05/23 06:51:21;;;;;;;19.65;4.43;;;;;;;19.07;47.25;100002.59;4811595;29;20038;-81
2022/05/23 06:53:58;;;;;;;11.02;1.88;;;;;;;18.60;47.41;99962.84;4825266;29;20117;-80
2022/05/23 06:56:23;;;;;;;7.03;2.20;;;;;;;19.14;47.05;100012.06;4826455;29;20054;-80
2022/05/23 06:58:50;;;;;;;28.27;2.30;;;;;;;18.49;47.29;99987.19;4828153;29;20050;-81
2022/05/23 07:01:16;;;;;;;8.43;1.83;;;;;;;19.02;46.53;100013.44;4831501;29;20084;-81
2022/05/23 07:03:44;;;;;;;7.97;2.13;;;;;;;18.86;47.07;99962.69;4827740;29;20094;-80
2022/05/23 07:14:27;;;;;;;3.78;2.10;;;;;;;19.54;46.66;100005.03;4826248;29;20064;-82
2022/05/23 07:16:54;;;;;;;9.32;1.50;;;;;;;19.40;54.51;99998.50;4825829;29;20051;-83
2022/05/23 07:19:20;;;;;;;2.70;1.52;;;;;;;19.60;48.93;99970.19;4821721;29;23607;-84
2022/05/23 07:21:45;;;;;;;3.42;1.83;;;;;;;19.73;51.10;99991.81;4839007;29;20050;-82
2022/05/23 07:24:11;;;;;;;6.35;2.05;;;;;;;20.03;50.20;99995.75;4826103;29;20042;-81
2022/05/23 07:26:37;;;;;;;7.35;1.77;;;;;;;18.63;47.19;99987.50;4836609;29;20066;-83
2022/05/23 07:29:11;;;;;;;5.20;1.85;;;;;;;19.37;47.97;100014.63;4838885;29;20069;-82
2022/05/23 07:31:37;;;;;;;3.50;1.40;;;;;;;19.82;53.31;99978.94;4821048;29;20050;-82
2022/05/23 07:34:04;;;;;;;14.85;2.33;;;;;;;19.90;48.22;100031.88;4830770;29;20053;-80
2022/05/23 07:36:30;;;;;;;8.25;2.22;;;;;;;19.13;53.49;100008.53;4829336;29;20029;-83
2022/05/23 07:39:18;;;;;;;5.97;2.42;;;;;;;18.97;58.55;99973.75;4817398;29;20182;-75
2022/05/23 07:41:44;;;;;;;5.53;1.52;;;;;;;20.46;44.99;100030.19;4835780;29;20050;-76
2022/05/23 07:44:11;;;;;;;6.18;2.20;;;;;;;20.23;51.12;99989.50;4838957;29;20050;-75
2022/05/23 07:46:37;;;;;;;2.95;1.17;;;;;;;19.91;54.23;99977.66;4843358;29;20048;-77
2022/05/23 07:49:04;;;;;;;5.90;1.70;;;;;;;20.84;49.04;99980.41;4852517;29;20479;-75
2022/05/23 07:51:30;;;;;;;6.38;1.85;;;;;;;20.35;43.72;99992.53;4836499;29;20669;-76
2022/05/23 08:02:15;;;;;;;2.95;1.63;;;;;;;21.05;46.56;100021.16;4835310;29;20061;-76
2022/05/23 08:04:41;;;;;;;12.10;2.40;;;;;;;20.77;45.24;99994.97;4840333;29;20077;-75
2022/05/23 08:07:09;;;;;;;8.18;1.58;;;;;;;20.19;45.87;99987.91;4836660;29;20048;-77
2022/05/23 08:09:36;;;;;;;3.78;1.10;;;;;;;20.38;46.21;100005.72;4854475;29;20041;-76
2022/05/23 08:12:04;;;;;;;16.05;1.85;;;;;;;20.22;45.07;100024.22;4852279;29;20436;-78
2022/05/23 08:14:30;;;;;;;10.88;2.47;;;;;;;20.93;43.51;100050.22;4838594;29;20563;-76
2022/05/23 08:16:56;;;;;;;7.38;2.30;;;;;;;20.92;46.20;100032.50;4838088;29;20049;-75
2022/05/23 08:19:21;;;;;;;4.55;2.03;;;;;;;20.71;46.17;100016.59;4836478;29;20053;-77
2022/05/23 08:21:53;;;;;;;4.68;2.15;;;;;;;19.40;45.04;100010.94;4839449;29;20041;-78
2022/05/23 08:24:18;;;;;;;4.45;1.63;;;;;;;20.08;44.96;100018.66;4837587;29;20057;-79
2022/05/23 08:26:44;;;;;;;7.78;1.83;;;;;;;19.75;47.64;100004.13;4840001;29;20395;-76
2022/05/23 08:29:10;;;;;;;3.17;1.52;;;;;;;19.69;46.34;100019.50;4841689;29;20330;-81
2022/05/23 08:31:36;;;;;;;2.67;1.67;;;;;;;20.00;48.83;100001.22;4836278;29;20065;-82
2022/05/23 08:34:03;;;;;;;6.82;1.23;;;;;;;20.24;46.11;100001.03;4852509;29;20042;-77
2022/05/23 08:36:29;;;;;;;5.82;1.17;;;;;;;19.53;45.48;100024.63;4840168;29;20070;-79
2022/05/23 08:38:54;;;;;;;10.30;1.67;;;;;;;19.33;45.59;100010.34;4845724;29;20053;-78
2022/05/23 08:41:33;;;;;;;5.30;1.90;;;;;;;20.55;51.00;99986.25;4842998;29;20037;-77
2022/05/23 08:44:10;;;;;;;7.13;1.75;;;;;;;20.71;43.74;99983.75;4837596;29;20049;-77
2022/05/23 08:47:08;;;;;;;6.43;2.00;;;;;;;19.34;46.26;99995.28;4835097;29;20057;-76
2022/05/23 08:49:49;;;;;;;7.70;1.67;;;;;;;19.59;46.69;99987.06;4842481;29;20052;-74
2022/05/23 08:52:33;;;;;;;10.10;2.80;;;;;;;19.73;46.05;99970.50;4856419;29;20616;-73
2022/05/23 08:55:07;;;;;;;14.77;4.32;;;;;;;21.07;50.51;99976.59;4844989;29;20091;-73
2022/05/23 08:57:50;;;;;;;10.00;2.47;;;;;;;21.88;43.87;99992.00;4844842;29;20041;-76
2022/05/23 09:00:20;;;;;;;4.30;1.88;;;;;;;20.49;43.93;100040.72;4851460;29;20148;-80
2022/05/23 09:02:54;;;;;;;3.88;2.38;;;;;;;20.85;45.31;99991.94;4834425;29;20148;-79
2022/05/23 09:05:32;;;;;;;7.05;2.10;;;;;;;21.85;45.58;100018.91;4831845;29;20057;-74
2022/05/23 09:08:08;;;;;;;4.60;2.83;;;;;;;21.31;42.31;100008.31;4835614;29;20085;-82
2022/05/23 09:10:40;;;;;;;7.70;1.85;;;;;;;20.60;43.01;100011.78;4840657;29;20045;-77
2022/05/23 09:13:12;;;;;;;4.10;1.77;;;;;;;20.93;43.23;100004.88;4855788;29;20041;-78
2022/05/23 09:19:44;;;;;;;3.60;1.80;;;;;;;20.93;42.23;100032.44;4752410;27;9322061;-80
2022/05/23 09:22:18;;;;;;;3.75;2.15;;;;;;;21.66;42.16;99974.47;5079007;28;20033;-75
2022/05/23 09:24:54;;;;;;;12.45;5.13;;;;;;;21.52;41.99;99981.44;5056947;28;20043;-76
2022/05/23 09:27:43;;;;;;;11.52;5.82;;;;;;;22.87;43.92;99982.94;5076082;28;20503;-76
2022/05/23 09:30:16;;;;;;;10.30;5.38;;;;;;;21.82;41.23;100001.22;5061447;28;20508;-75
2022/05/23 09:32:53;;;;;;;11.27;4.05;;;;;;;22.57;41.80;100017.66;5080435;28;20051;-77
2022/05/23 09:35:25;;;;;;;13.82;7.50;;;;;;;22.99;44.29;100026.03;5081459;28;20050;-76
2022/05/23 09:38:26;;;;;;;23.50;6.57;;;;;;;22.67;43.59;100026.91;5063021;28;20075;-76
2022/05/23 09:40:53;;;;;;;13.18;5.65;;;;;;;21.93;44.19;99982.78;5045766;28;20064;-76
2022/05/23 09:49:17;;;;;;;8.25;3.40;;;;;;;20.61;42.71;99984.19;5080980;28;20060;-76
2022/05/23 09:51:48;;;;;;;8.18;3.80;;;;;;;21.82;45.33;100011.03;5063598;28;20031;-76
2022/05/23 09:54:20;;;;;;;7.40;3.17;;;;;;;22.01;44.92;99994.88;5061613;28;20055;-75
2022/05/23 09:56:46;;;;;;;14.52;4.90;;;;;;;22.45;42.97;100023.69;5062334;28;20056;-75
2022/05/23 09:59:25;;;;;;;7.32;4.15;;;;;;;22.04;45.19;99978.69;5079077;28;20067;-78
2022/05/23 10:01:53;;;;;;;12.00;4.10;;;;;;;20.60;44.09;100003.81;5077374;28;20101;-77
2022/05/23 10:04:30;;;;;;;8.93;4.60;;;;;;;20.38;44.49;100024.38;5079659;28;20058;-75
2022/05/23 10:07:01;;;;;;;3.80;2.03;;;;;;;19.93;45.67;100002.44;5062672;28;20063;-75
2022/05/23 10:09:30;;;;;;;18.63;6.68;;;;;;;20.47;45.47;99991.94;5077951;28;20059;-75
2022/05/23 10:12:04;;;;;;;7.30;4.32;;;;;;;20.28;45.48;100028.41;5059283;28;20047;-75
2022/05/23 10:15:04;;;;;;;5.35;1.90;;;;;;;19.80;46.27;100031.41;5044229;28;20253;-76
2022/05/23 10:17:38;;;;;;;5.82;3.00;;;;;;;19.33;46.71;99975.75;5059510;28;20049;-75
2022/05/23 10:20:24;;;;;;;11.00;4.22;;;;;;;21.04;44.51;99983.88;5045908;28;20052;-74
2022/05/23 10:22:57;;;;;;;9.38;3.92;;;;;;;21.86;42.35;100017.94;5064396;28;20048;-74
2022/05/23 10:25:28;;;;;;;8.48;4.65;;;;;;;22.37;41.91;100031.28;5062308;28;20499;-74
2022/05/23 10:27:59;;;;;;;12.52;6.25;;;;;;;20.85;42.52;99973.25;5051392;28;20347;-75
2022/05/23 10:30:28;;;;;;;9.07;4.75;;;;;;;20.87;42.59;99979.38;5055719;28;20190;-74
2022/05/23 10:33:04;;;;;;;6.57;4.22;;;;;;;21.75;42.70;99980.25;5055035;28;20051;-73
2022/05/23 10:35:44;;;;;;;5.40;2.75;;;;;;;21.16;42.67;100033.06;5045391;28;20052;-75
2022/05/23 10:44:27;;;;;;;8.27;3.03;;;;;;;20.32;46.61;100014.88;5073215;28;20051;-75
2022/05/23 10:47:34;;;;;;;5.47;3.45;;;;;;;19.59;45.44;99981.75;5052701;28;20555;-77
2022/05/23 10:50:25;;;;;;;9.43;3.90;;;;;;;19.91;45.40;99908.44;5048732;28;20507;-78
2022/05/23 10:53:24;;;;;;;11.07;3.67;;;;;;;20.31;47.23;99994.47;5071842;28;20058;-73
2022/05/23 10:55:52;;;;;;;7.55;4.00;;;;;;;20.51;45.95;100008.66;5022325;28;20515;-75
2022/05/23 10:58:36;;;;;;;10.02;4.15;;;;;;;21.42;45.16;99935.69;5067012;28;20056;-75
2022/05/23 11:01:28;;;;;;;19.33;3.47;;;;;;;22.52;41.25;100004.56;5067535;28;20027;-77
2022/05/23 11:04:25;;;;;;;21.85;9.68;;;;;;;22.03;41.71;100001.00;5072016;28;20036;-79
2022/05/23 11:07:28;;;;;;;34.58;13.68;;;;;;;21.81;43.07;99961.22;5068263;28;20063;-81
2022/05/23 11:10:30;;;;;;;43.25;17.27;;;;;;;22.11;42.78;99959.56;5064860;28;20040;-80
2022/05/23 11:13:17;;;;;;;45.03;17.65;;;;;;;22.72;43.18;99951.72;5017707;28;20041;-82
2022/05/23 11:16:01;;;;;;;35.10;14.27;;;;;;;22.33;41.00;99961.91;5056666;28;20126;-81
2022/05/23 11:18:55;;;;;;;46.83;16.25;;;;;;;21.52;43.65;99938.72;5053842;28;20053;-82
2022/05/23 11:21:36;;;;;;;31.13;12.48;;;;;;;21.84;42.16;99974.41;5059209;28;20056;-83
2022/05/23 11:24:09;;;;;;;27.92;11.82;;;;;;;20.63;43.58;99953.00;5044626;28;20113;-83
2022/05/23 11:26:45;;;;;;;26.48;10.80;;;;;;;21.46;44.12;99939.94;5046931;28;20130;-80
2022/05/23 11:34:48;;;;;;;39.80;15.70;;;;;;;22.44;41.38;99937.25;5062530;28;20027;-85
2022/05/23 11:40:15;;;;;;;38.53;16.08;;;;;;;20.95;43.46;99928.31;5069401;28;20092;-82
2022/05/23 11:43:02;;;;;;;49.90;18.58;;;;;;;21.96;43.39;99931.03;5071278;28;20519;-84
2022/05/23 11:48:34;;;;;;;28.92;14.27;;;;;;;21.84;41.10;99911.16;5064472;28;20223;-81
2022/05/23 11:51:24;;;;;;;29.98;12.45;;;;;;;22.27;43.24;99932.88;5068773;28;20049;-83
2022/05/23 11:54:45;;;;;;;16.48;7.65;;;;;;;22.04;40.87;99910.06;5071111;28;20476;-83
2022/05/23 11:57:30;;;;;;;8.35;3.65;;;;;;;21.38;43.45;99953.66;5027269;28;20128;-76
2022/05/23 12:00:22;;;;;;;11.68;5.53;;;;;;;22.58;42.73;99949.84;5032823;28;20115;-77
2022/05/23 12:03:12;;;;;;;13.15;5.00;;;;;;;22.66;40.57;99952.06;5060166;28;20067;-79
2022/05/23 12:05:41;;;;;;;12.57;5.07;;;;;;;21.84;43.57;99935.19;5068993;28;20480;-79
2022/05/23 12:08:33;;;;;;;8.88;4.68;;;;;;;22.72;43.30;99899.09;5067599;28;20047;-76
2022/05/23 12:11:01;;;;;;;12.13;5.45;;;;;;;22.67;42.57;99890.47;5064569;28;20506;-77
2022/05/23 12:13:32;;;;;;;10.52;4.45;;;;;;;22.73;40.42;99895.47;5072105;28;20390;-77
2022/05/23 12:16:26;;;;;;;9.57;3.83;;;;;;;22.63;39.59;99906.78;5070018;28;20036;-77
2022/05/23 12:19:27;;;;;;;5.28;3.17;;;;;;;22.22;41.51;99951.00;5061479;28;20518;-76
2022/05/23 12:22:14;;;;;;;9.57;3.13;;;;;;;22.93;40.94;99918.38;5058717;28;20056;-77
2022/05/23 12:25:07;;;;;;;9.52;3.45;;;;;;;23.01;41.24;99927.78;5039550;28;20390;-77
2022/05/23 12:28:00;;;;;;;21.98;4.13;;;;;;;22.52;41.59;99888.69;5017765;28;20075;-79
2022/05/23 12:30:35;;;;;;;9.50;2.55;;;;;;;21.66;42.03;99891.69;5061159;28;20063;-79
2022/05/23 12:33:06;;;;;;;8.50;2.80;;;;;;;21.32;41.14;99883.72;5063898;28;20060;-79
2022/05/23 12:36:05;;;;;;;3.78;2.50;;;;;;;21.74;41.54;99883.25;5064494;28;20573;-78
2022/05/23 12:39:03;;;;;;;4.63;2.40;;;;;;;23.06;43.68;99936.41;5064384;28;20056;-79
2022/05/23 12:41:52;;;;;;;3.95;2.35;;;;;;;23.36;41.88;99917.63;5059771;28;20495;-79
2022/05/23 12:44:38;;;;;;;5.82;2.88;;;;;;;22.77;39.65;99866.72;5068416;28;20055;-80
2022/05/23 12:47:09;;;;;;;7.03;2.40;;;;;;;22.96;40.03;99866.47;5052028;28;20074;-81
2022/05/23 12:50:12;;;;;;;2.65;1.85;;;;;;;22.23;40.42;99893.03;5059900;28;20041;-79
2022/05/23 12:52:38;;;;;;;8.57;1.67;;;;;;;22.62;43.33;99863.16;5066776;28;20052;-80
2022/05/23 12:55:42;;;;;;;6.57;3.53;;;;;;;22.85;39.87;99872.50;5048054;28;20044;-85
2022/05/23 12:58:29;;;;;;;7.55;2.58;;;;;;;22.47;39.71;99874.72;5048549;28;20529;-84
2022/05/23 13:01:02;;;;;;;4.40;1.63;;;;;;;22.52;39.84;99915.44;5045725;28;20032;-83